Time;durP1;ratioP1;P1;durP2;ratioP2;P2;SDS_P1;SDS_P2;PMS_P1;PMS_P2;Temp;Humidity;BMP_temperature;BMP_pressure;BME280_temperature;BME280_humidity;BME280_pressure;Samples;Min_cycle;Max_cycle;Signal;HPM_P1;HPM_P2
2022/08/31 00:04:25;;;;;;;2.63;1.60;;;17.30;99.90;;;;;;5069389;28;20039;-78
2022/08/31 00:06:53;;;;;;;4.95;1.70;;;17.30;99.90;;;;;;5066005;28;20048;-80
2022/08/31 00:09:19;;;;;;;2.60;1.23;;;17.30;99.90;;;;;;5068186;28;20024;-78
2022/08/31 00:11:45;;;;;;;2.13;1.30;;;17.20;99.90;;;;;;5070316;28;20442;-78
2022/08/31 00:14:10;;;;;;;5.63;2.00;;;17.20;99.90;;;;;;5068512;28;20408;-78
2022/08/31 00:16:39;;;;;;;7.80;2.08;;;17.20;99.90;;;;;;5068855;28;20032;-78
2022/08/31 00:19:10;;;;;;;2.40;1.35;;;17.20;99.90;;;;;;5065064;28;20115;-78
2022/08/31 00:21:38;;;;;;;1.67;1.38;;;17.10;99.90;;;;;;5070821;28;20388;-78
2022/08/31 00:24:07;;;;;;;2.63;1.45;;;17.10;99.90;;;;;;5065413;28;20013;-78
2022/08/31 00:26:32;;;;;;;3.63;1.20;;;17.10;99.90;;;;;;5068306;28;20029;-78
2022/08/31 00:29:02;;;;;;;3.03;1.48;;;17.10;99.90;;;;;;5068955;28;20124;-79
2022/08/31 00:31:28;;;;;;;3.25;1.52;;;17.10;99.90;;;;;;5070051;28;20262;-78
2022/08/31 00:33:57;;;;;;;2.05;1.50;;;17.10;99.90;;;;;;5057777;28;20108;-78
2022/08/31 00:36:24;;;;;;;3.53;1.90;;;17.10;99.90;;;;;;5070404;28;20036;-79
2022/08/31 00:38:51;;;;;;;1.83;1.40;;;17.00;99.90;;;;;;5068353;28;20033;-78
2022/08/31 00:41:20;;;;;;;1.60;1.20;;;17.10;99.90;;;;;;5067255;28;20086;-78
2022/08/31 00:43:49;;;;;;;3.78;1.25;;;17.00;99.90;;;;;;5066409;28;20074;-79
2022/08/31 00:46:22;;;;;;;2.85;1.40;;;17.00;99.90;;;;;;5069033;28;20059;-79
2022/08/31 00:49:09;;;;;;;1.63;1.48;;;17.00;99.90;;;;;;5068415;28;20466;-79
2022/08/31 00:52:02;;;;;;;1.25;1.17;;;17.00;99.90;;;;;;5067458;28;20614;-80
2022/08/31 00:54:33;;;;;;;2.50;1.75;;;16.90;99.90;;;;;;5063520;28;20119;-78
2022/08/31 00:56:59;;;;;;;1.63;1.38;;;16.90;99.90;;;;;;5067114;28;20060;-79
2022/08/31 00:59:26;;;;;;;5.30;1.40;;;16.90;99.90;;;;;;5067991;28;20098;-78
2022/08/31 01:02:00;;;;;;;2.85;1.35;;;16.90;99.90;;;;;;5068111;28;20028;-79
2022/08/31 01:04:25;;;;;;;2.10;1.60;;;16.90;99.90;;;;;;5064592;28;20040;-78
2022/08/31 01:06:51;;;;;;;2.72;1.63;;;16.90;99.90;;;;;;5068322;28;20032;-78
2022/08/31 01:09:19;;;;;;;2.10;1.40;;;16.90;99.90;;;;;;5063209;28;20520;-79
2022/08/31 01:11:45;;;;;;;1.67;1.35;;;16.90;99.90;;;;;;5066369;28;20025;-79
2022/08/31 01:14:17;;;;;;;1.80;1.30;;;16.90;99.90;;;;;;5068214;28;20032;-78
2022/08/31 01:16:55;;;;;;;3.75;1.55;;;16.80;99.90;;;;;;5066830;28;20020;-78
2022/08/31 01:19:28;;;;;;;1.20;1.20;;;16.90;99.90;;;;;;5067422;28;20388;-78
2022/08/31 01:22:18;;;;;;;1.70;1.45;;;16.90;99.90;;;;;;5067309;28;20107;-78
2022/08/31 01:24:46;;;;;;;2.03;1.35;;;17.00;99.90;;;;;;5069917;28;20097;-78
2022/08/31 01:27:13;;;;;;;4.15;2.28;;;16.90;99.90;;;;;;5066404;28;20086;-78
2022/08/31 01:29:39;;;;;;;3.20;1.25;;;17.00;99.90;;;;;;5068463;28;20036;-78
2022/08/31 01:32:06;;;;;;;1.50;1.40;;;17.00;99.90;;;;;;5068001;28;20519;-80
2022/08/31 01:34:32;;;;;;;1.77;1.60;;;17.00;99.90;;;;;;5067748;28;20070;-78
2022/08/31 01:36:58;;;;;;;2.33;1.45;;;17.00;99.90;;;;;;5063491;28;20033;-79
2022/08/31 01:39:25;;;;;;;1.75;1.65;;;17.00;99.90;;;;;;5066353;28;20044;-78
2022/08/31 01:41:51;;;;;;;2.20;1.23;;;17.00;99.90;;;;;;5067782;28;20024;-78
2022/08/31 01:44:19;;;;;;;3.10;1.70;;;17.00;99.90;;;;;;5062662;28;20028;-78
2022/08/31 01:46:46;;;;;;;1.60;1.50;;;17.00;99.90;;;;;;5064257;28;20052;-78
2022/08/31 01:49:14;;;;;;;1.85;1.50;;;17.00;99.90;;;;;;5065341;28;20090;-78
2022/08/31 01:51:40;;;;;;;1.85;1.50;;;17.00;99.90;;;;;;5067686;28;20107;-78
2022/08/31 01:54:15;;;;;;;2.35;2.08;;;17.10;99.90;;;;;;5066771;28;20143;-78
2022/08/31 01:56:44;;;;;;;2.30;1.63;;;17.00;99.90;;;;;;5069250;28;20031;-78
2022/08/31 01:59:12;;;;;;;2.00;1.75;;;17.00;99.90;;;;;;5065525;28;20032;-79
2022/08/31 02:01:44;;;;;;;1.08;1.08;;;17.00;99.90;;;;;;5068683;28;20036;-78
2022/08/31 02:04:15;;;;;;;2.88;1.85;;;16.90;99.90;;;;;;5068618;28;20033;-78
2022/08/31 02:06:43;;;;;;;2.78;1.90;;;16.90;99.90;;;;;;5067987;28;20035;-78
2022/08/31 02:09:16;;;;;;;2.53;1.60;;;16.90;99.90;;;;;;5068935;28;20044;-78
2022/08/31 02:11:42;;;;;;;1.50;1.40;;;16.90;99.90;;;;;;5082172;28;20037;-78
2022/08/31 02:14:18;;;;;;;1.40;1.30;;;16.90;99.90;;;;;;5066488;28;20025;-78
2022/08/31 02:16:44;;;;;;;7.25;2.00;;;16.90;99.90;;;;;;5068298;28;20081;-79
2022/08/31 02:19:10;;;;;;;2.72;1.50;;;16.90;99.90;;;;;;5067145;28;20432;-78
2022/08/31 02:21:36;;;;;;;1.77;1.67;;;16.90;99.90;;;;;;5065998;28;20495;-78
2022/08/31 02:24:06;;;;;;;3.85;2.13;;;16.90;99.90;;;;;;5068029;28;20035;-78
2022/08/31 02:26:31;;;;;;;1.98;1.77;;;16.90;99.90;;;;;;5065435;28;20507;-78
2022/08/31 02:29:06;;;;;;;1.67;1.48;;;16.90;99.90;;;;;;5067299;28;20033;-78
2022/08/31 02:31:32;;;;;;;2.72;1.90;;;16.90;99.90;;;;;;5066570;28;20608;-78
2022/08/31 02:34:06;;;;;;;2.17;1.92;;;16.90;99.90;;;;;;5068232;28;20121;-79
2022/08/31 02:36:32;;;;;;;3.50;2.05;;;16.90;99.90;;;;;;5067259;28;20087;-78
2022/08/31 02:39:06;;;;;;;2.90;1.83;;;16.80;99.90;;;;;;5067311;28;20147;-79
2022/08/31 02:41:32;;;;;;;2.55;1.60;;;16.80;99.90;;;;;;5065470;28;20515;-78
2022/08/31 02:43:57;;;;;;;2.15;1.95;;;16.80;99.90;;;;;;5067255;28;20040;-78
2022/08/31 02:46:23;;;;;;;3.10;1.80;;;16.80;99.90;;;;;;5066594;28;20524;-78
2022/08/31 02:48:49;;;;;;;3.95;2.40;;;16.80;99.90;;;;;;5066813;28;20078;-79
2022/08/31 02:51:23;;;;;;;2.30;2.10;;;16.80;99.90;;;;;;5067236;28;20103;-78
2022/08/31 02:53:50;;;;;;;5.68;2.15;;;16.70;99.90;;;;;;5067648;28;20070;-78
2022/08/31 02:56:15;;;;;;;4.05;2.50;;;16.60;99.90;;;;;;5066363;28;20016;-79
2022/08/31 02:58:41;;;;;;;2.85;2.28;;;16.60;99.90;;;;;;5071274;28;20033;-78
2022/08/31 03:01:07;;;;;;;3.17;2.30;;;16.60;99.90;;;;;;5063457;28;20512;-78
2022/08/31 03:03:33;;;;;;;3.60;2.03;;;16.50;99.90;;;;;;5072168;28;20027;-78
2022/08/31 03:06:08;;;;;;;2.38;2.08;;;16.50;99.90;;;;;;5072497;28;20024;-79
2022/08/31 03:08:33;;;;;;;2.33;2.00;;;16.50;99.90;;;;;;5062536;28;20036;-79
2022/08/31 03:11:09;;;;;;;1.92;1.73;;;16.40;99.90;;;;;;5071967;28;20388;-79
2022/08/31 03:13:38;;;;;;;4.28;2.53;;;16.40;99.90;;;;;;5072736;28;20038;-78
2022/08/31 03:16:12;;;;;;;4.30;1.73;;;16.30;99.90;;;;;;5069832;28;20476;-79
2022/08/31 03:18:38;;;;;;;2.45;2.00;;;16.30;99.90;;;;;;5071663;28;20067;-78
2022/08/31 03:21:03;;;;;;;2.58;1.60;;;16.30;99.90;;;;;;5070871;28;20024;-79
2022/08/31 03:23:29;;;;;;;1.52;1.42;;;16.30;99.90;;;;;;5071951;28;20028;-79
2022/08/31 03:25:55;;;;;;;2.53;2.00;;;16.20;99.90;;;;;;5070576;28;20119;-78
2022/08/31 03:28:20;;;;;;;3.33;1.50;;;16.20;99.90;;;;;;5069790;28;20032;-78
2022/08/31 03:30:46;;;;;;;1.60;1.45;;;16.20;99.90;;;;;;5069553;28;20427;-79
2022/08/31 03:33:12;;;;;;;2.40;2.20;;;16.20;99.90;;;;;;5070379;28;20012;-78
2022/08/31 03:35:42;;;;;;;4.50;2.13;;;16.20;99.90;;;;;;5071116;28;20028;-78
2022/08/31 03:38:09;;;;;;;3.97;2.08;;;16.10;99.90;;;;;;5071623;28;20036;-78
2022/08/31 03:40:35;;;;;;;2.13;1.85;;;16.10;99.90;;;;;;5072763;28;20189;-78
2022/08/31 03:43:00;;;;;;;2.22;2.03;;;16.00;99.90;;;;;;5064733;28;20039;-78
2022/08/31 03:45:26;;;;;;;3.28;1.92;;;16.10;99.90;;;;;;5066429;28;20465;-78
2022/08/31 03:47:52;;;;;;;2.13;1.88;;;16.00;99.90;;;;;;5072008;28;20052;-78
2022/08/31 03:50:18;;;;;;;4.13;1.83;;;16.00;99.90;;;;;;5067417;28;20032;-78
2022/08/31 03:52:44;;;;;;;2.50;2.00;;;16.00;99.90;;;;;;5071837;28;20477;-79
2022/08/31 03:55:10;;;;;;;3.08;2.08;;;16.00;99.90;;;;;;5064108;28;20056;-78
2022/08/31 03:57:36;;;;;;;2.30;2.05;;;16.00;99.90;;;;;;5068699;28;20024;-78
2022/08/31 04:00:07;;;;;;;5.28;1.60;;;16.00;99.90;;;;;;5068656;28;20032;-78
2022/08/31 04:02:36;;;;;;;4.38;2.17;;;16.00;99.90;;;;;;5066414;28;20366;-79
2022/08/31 04:05:02;;;;;;;4.80;2.22;;;15.90;99.90;;;;;;5064250;28;20032;-78
2022/08/31 04:07:27;;;;;;;2.70;2.00;;;15.90;99.90;;;;;;5068133;28;20050;-78
2022/08/31 04:09:56;;;;;;;7.05;2.65;;;15.90;99.90;;;;;;5069345;28;20074;-78
2022/08/31 04:12:21;;;;;;;2.20;2.00;;;15.90;99.90;;;;;;5068600;28;20036;-78
2022/08/31 04:14:47;;;;;;;3.85;2.15;;;15.90;99.90;;;;;;5070715;28;20101;-77
2022/08/31 04:17:13;;;;;;;8.40;2.63;;;15.90;99.90;;;;;;5067111;28;20032;-78
2022/08/31 04:19:40;;;;;;;2.78;2.10;;;15.80;99.90;;;;;;5070405;28;20047;-78
2022/08/31 04:22:14;;;;;;;3.13;1.88;;;15.80;99.90;;;;;;5065885;28;20060;-78
2022/08/31 04:24:40;;;;;;;6.32;1.95;;;15.80;99.90;;;;;;5069838;28;20035;-78
2022/08/31 04:27:11;;;;;;;5.00;1.92;;;15.80;99.90;;;;;;5066664;28;20028;-79
2022/08/31 04:29:38;;;;;;;3.22;1.67;;;15.80;99.90;;;;;;5069070;28;20071;-77
2022/08/31 04:32:13;;;;;;;6.20;2.40;;;15.80;99.90;;;;;;5068572;28;20477;-78
2022/08/31 04:34:38;;;;;;;5.53;1.80;;;15.80;99.90;;;;;;5065976;28;20033;-78
2022/08/31 04:37:07;;;;;;;3.33;2.28;;;15.80;99.90;;;;;;5067935;28;20443;-78
2022/08/31 04:39:33;;;;;;;2.25;1.95;;;15.70;99.90;;;;;;5067882;28;20036;-78
2022/08/31 04:41:59;;;;;;;2.10;1.90;;;15.70;99.90;;;;;;5061134;28;20064;-78
2022/08/31 04:44:25;;;;;;;6.03;2.15;;;15.60;99.90;;;;;;5063358;28;20071;-78
2022/08/31 04:46:54;;;;;;;5.07;2.40;;;15.60;99.90;;;;;;5059987;28;20052;-79
2022/08/31 04:49:22;;;;;;;4.18;2.15;;;15.60;99.90;;;;;;5066166;28;20495;-78
2022/08/31 04:51:50;;;;;;;6.20;2.47;;;15.60;99.90;;;;;;5065602;28;20036;-78
2022/08/31 04:54:19;;;;;;;2.92;2.50;;;15.60;99.90;;;;;;5062782;28;20029;-79
2022/08/31 04:57:02;;;;;;;10.30;2.47;;;15.50;99.90;;;;;;5065606;28;20028;-79
2022/08/31 04:59:29;;;;;;;3.45;2.45;;;15.60;99.90;;;;;;5069701;28;20044;-79
2022/08/31 05:01:55;;;;;;;4.72;2.47;;;15.50;99.90;;;;;;5069137;28;20078;-78
2022/08/31 05:04:24;;;;;;;3.25;2.13;;;15.50;99.90;;;;;;5071127;28;20107;-78
2022/08/31 05:06:50;;;;;;;4.20;2.50;;;15.50;99.90;;;;;;5068172;28;20037;-78
2022/08/31 05:09:23;;;;;;;8.00;2.53;;;15.50;99.90;;;;;;5069608;28;20541;-78
2022/08/31 05:11:50;;;;;;;3.42;2.03;;;15.50;99.90;;;;;;5067398;28;20236;-78
2022/08/31 05:14:24;;;;;;;4.38;2.88;;;15.50;99.90;;;;;;5068629;28;20032;-78
2022/08/31 05:16:51;;;;;;;2.97;2.33;;;15.50;99.90;;;;;;5068012;28;20050;-78
2022/08/31 05:19:22;;;;;;;2.83;1.88;;;15.50;99.90;;;;;;5070025;28;20445;-78
2022/08/31 05:21:48;;;;;;;3.13;2.03;;;15.40;99.90;;;;;;5067127;28;20036;-78
2022/08/31 05:24:20;;;;;;;4.03;1.90;;;15.40;99.90;;;;;;5069465;28;20077;-79
2022/08/31 05:26:51;;;;;;;1.60;1.50;;;15.50;99.90;;;;;;5068282;28;20036;-79
2022/08/31 05:29:23;;;;;;;4.72;2.10;;;15.50;99.90;;;;;;5065716;28;20056;-79
2022/08/31 05:31:49;;;;;;;5.82;2.50;;;15.50;99.90;;;;;;5068003;28;20090;-78
2022/08/31 05:34:21;;;;;;;2.53;1.92;;;15.60;99.90;;;;;;5069989;28;20107;-79
2022/08/31 05:36:53;;;;;;;2.55;1.77;;;15.60;99.90;;;;;;5068008;28;20029;-78
2022/08/31 05:39:25;;;;;;;5.05;1.73;;;15.60;99.90;;;;;;5068392;28;20167;-78
2022/08/31 05:41:50;;;;;;;3.47;2.13;;;15.60;99.90;;;;;;5065209;28;20021;-78
2022/08/31 05:44:25;;;;;;;5.78;2.60;;;15.60;99.90;;;;;;5065492;28;20492;-79
2022/08/31 05:46:51;;;;;;;9.85;3.05;;;15.60;99.90;;;;;;5067640;28;20192;-78
2022/08/31 05:49:22;;;;;;;5.15;2.25;;;15.60;99.90;;;;;;5067079;28;20056;-79
2022/08/31 05:51:49;;;;;;;5.75;2.28;;;15.60;99.90;;;;;;5067640;28;20040;-78
2022/08/31 05:54:32;;;;;;;5.30;2.50;;;15.60;99.90;;;;;;5069906;28;20039;-78
2022/08/31 05:56:57;;;;;;;2.58;2.30;;;15.60;99.90;;;;;;5064696;28;20238;-78
2022/08/31 05:59:26;;;;;;;6.05;2.20;;;15.70;99.90;;;;;;5067397;28;20115;-78
2022/08/31 06:01:51;;;;;;;3.25;2.17;;;15.70;99.90;;;;;;5066718;28;20039;-78
2022/08/31 06:04:27;;;;;;;9.27;2.17;;;15.70;99.90;;;;;;5070001;28;20115;-78
2022/08/31 06:06:53;;;;;;;10.80;2.78;;;15.70;99.90;;;;;;5064981;28;20480;-78
2022/08/31 06:09:43;;;;;;;5.03;2.10;;;15.70;99.90;;;;;;5069217;28;20043;-78
2022/08/31 06:12:16;;;;;;;2.67;1.85;;;15.60;99.90;;;;;;5065142;28;20028;-78
2022/08/31 06:14:42;;;;;;;2.25;2.03;;;15.60;99.90;;;;;;5067928;28;20029;-79
2022/08/31 06:17:16;;;;;;;3.58;1.65;;;15.60;99.90;;;;;;5066177;28;20201;-79
2022/08/31 06:19:42;;;;;;;3.00;2.05;;;15.60;99.90;;;;;;5068457;28;20392;-79
2022/08/31 06:22:18;;;;;;;5.32;1.90;;;15.60;99.90;;;;;;5068326;28;20033;-79
2022/08/31 06:24:44;;;;;;;2.97;1.95;;;15.60;99.90;;;;;;5069091;28;20077;-79
2022/08/31 06:27:10;;;;;;;5.57;2.33;;;15.60;99.90;;;;;;5066069;28;20096;-78
2022/08/31 06:29:35;;;;;;;3.17;2.05;;;15.70;99.90;;;;;;5067856;28;20036;-78
2022/08/31 06:32:06;;;;;;;8.75;2.40;;;15.60;99.90;;;;;;5067953;28;20021;-79
2022/08/31 06:34:32;;;;;;;2.47;1.83;;;15.60;99.90;;;;;;5072526;28;20032;-78
2022/08/31 06:36:58;;;;;;;4.30;2.08;;;15.70;99.90;;;;;;5072586;28;20480;-79
2022/08/31 06:39:33;;;;;;;5.65;2.65;;;15.70;99.90;;;;;;5071486;28;20033;-78
2022/08/31 06:41:58;;;;;;;8.85;2.22;;;15.80;99.90;;;;;;5070525;28;20040;-79
2022/08/31 06:44:33;;;;;;;4.35;2.22;;;15.80;99.90;;;;;;5073761;28;20033;-78
2022/08/31 06:46:58;;;;;;;2.70;1.83;;;15.80;99.90;;;;;;5070917;28;20404;-79
2022/08/31 06:49:28;;;;;;;5.00;2.22;;;15.80;99.90;;;;;;5073909;28;20038;-79
2022/08/31 06:51:59;;;;;;;2.72;1.58;;;15.80;99.90;;;;;;5072792;28;20036;-78
2022/08/31 06:54:30;;;;;;;2.70;1.88;;;15.80;99.90;;;;;;5073478;28;20025;-78
2022/08/31 06:56:57;;;;;;;4.50;2.35;;;15.80;99.90;;;;;;5071584;28;20461;-78
2022/08/31 06:59:29;;;;;;;2.50;1.70;;;15.90;99.90;;;;;;5072065;28;20056;-78
2022/08/31 07:01:55;;;;;;;5.55;2.10;;;15.80;99.90;;;;;;5072827;28;20020;-78
2022/08/31 07:04:34;;;;;;;3.95;1.88;;;15.90;99.90;;;;;;5073351;28;20388;-78
2022/08/31 07:07:00;;;;;;;5.38;2.22;;;15.90;99.90;;;;;;5069539;28;20024;-79
2022/08/31 07:09:32;;;;;;;5.45;1.45;;;15.90;99.90;;;;;;5073563;28;20059;-78
2022/08/31 07:11:58;;;;;;;2.45;1.60;;;15.90;99.90;;;;;;5068777;28;20039;-79
2022/08/31 07:14:33;;;;;;;5.63;2.63;;;16.00;99.90;;;;;;5072025;28;20020;-78
2022/08/31 07:17:01;;;;;;;9.25;2.15;;;16.00;99.90;;;;;;5072594;28;20028;-79
2022/08/31 07:19:27;;;;;;;4.63;2.00;;;16.00;99.90;;;;;;5073183;28;20043;-78
2022/08/31 07:21:59;;;;;;;1.50;1.33;;;16.00;99.90;;;;;;5073213;28;20393;-78
2022/08/31 07:24:28;;;;;;;7.07;2.22;;;16.00;99.90;;;;;;5071601;28;20027;-78
2022/08/31 07:26:58;;;;;;;6.75;1.83;;;16.10;99.90;;;;;;5066172;28;20477;-78
2022/08/31 07:29:32;;;;;;;4.55;1.98;;;16.10;99.90;;;;;;5073012;28;20051;-78
2022/08/31 07:31:58;;;;;;;4.30;2.00;;;16.20;99.90;;;;;;5072368;28;20050;-80
2022/08/31 07:34:28;;;;;;;5.80;1.77;;;16.20;99.90;;;;;;5072724;28;20468;-78
2022/08/31 07:42:37;;;;;;;3.92;2.05;;;16.30;99.90;;;;;;5067401;28;20048;-80
2022/08/31 07:45:06;;;;;;;8.93;2.08;;;16.30;99.90;;;;;;5070732;28;20036;-79
2022/08/31 07:47:43;;;;;;;9.73;3.13;;;16.40;99.90;;;;;;5068846;28;20492;-79
2022/08/31 07:50:09;;;;;;;3.75;1.55;;;16.40;99.90;;;;;;5066379;28;20025;-78
2022/08/31 07:52:46;;;;;;;8.38;1.60;;;16.50;99.90;;;;;;5070913;28;20093;-78
2022/08/31 07:55:26;;;;;;;5.82;1.70;;;16.50;99.90;;;;;;5069762;28;20036;-79
2022/08/31 07:57:54;;;;;;;6.03;1.70;;;16.50;99.90;;;;;;5070962;28;20039;-78
2022/08/31 08:00:28;;;;;;;6.13;1.70;;;16.60;99.90;;;;;;5075043;28;20077;-79
2022/08/31 08:02:54;;;;;;;2.75;1.30;;;16.70;99.90;;;;;;5070416;28;20032;-78
2022/08/31 08:05:23;;;;;;;8.93;1.95;;;16.70;99.90;;;;;;5072377;28;20054;-78
2022/08/31 08:07:51;;;;;;;8.70;1.65;;;16.70;99.90;;;;;;5069948;28;20033;-78
2022/08/31 08:10:28;;;;;;;9.57;2.20;;;16.70;99.90;;;;;;5066648;28;20029;-79
2022/08/31 08:13:01;;;;;;;3.58;1.75;;;16.70;99.90;;;;;;5069382;28;20043;-79
2022/08/31 08:15:32;;;;;;;7.07;2.00;;;16.70;99.90;;;;;;5071998;28;20036;-79
2022/08/31 08:17:59;;;;;;;8.90;2.00;;;16.70;99.90;;;;;;5066367;28;20036;-79
2022/08/31 08:20:26;;;;;;;6.65;1.85;;;16.70;99.90;;;;;;5071026;28;20034;-78
2022/08/31 08:22:52;;;;;;;4.50;1.88;;;16.80;99.90;;;;;;5068062;28;20115;-78
2022/08/31 08:25:27;;;;;;;6.57;2.10;;;16.80;99.90;;;;;;5071867;28;20024;-79
2022/08/31 08:27:53;;;;;;;6.63;2.33;;;16.90;99.90;;;;;;5066900;28;20032;-78
2022/08/31 08:30:19;;;;;;;6.90;1.73;;;16.90;99.90;;;;;;5069757;28;20032;-80
2022/08/31 08:32:46;;;;;;;5.97;1.98;;;16.90;99.90;;;;;;5070483;28;20427;-79
2022/08/31 08:35:17;;;;;;;6.78;2.00;;;16.90;99.90;;;;;;5060703;28;20028;-79
2022/08/31 08:37:47;;;;;;;8.25;2.40;;;16.90;99.90;;;;;;5068874;28;20033;-79
2022/08/31 08:40:38;;;;;;;14.10;2.10;;;17.00;99.90;;;;;;5069926;28;20040;-80
2022/08/31 08:43:14;;;;;;;5.75;1.52;;;17.00;99.90;;;;;;5069103;28;20102;-78
2022/08/31 08:45:42;;;;;;;6.65;1.63;;;17.00;99.90;;;;;;5071687;28;20040;-78
2022/08/31 08:48:11;;;;;;;14.70;1.92;;;17.00;99.90;;;;;;5069399;28;20092;-78
2022/08/31 08:50:40;;;;;;;4.78;2.03;;;17.00;99.90;;;;;;5070707;28;20024;-78
2022/08/31 08:53:09;;;;;;;8.57;2.03;;;17.10;99.90;;;;;;5071058;28;20386;-78
2022/08/31 08:55:38;;;;;;;7.68;2.35;;;17.10;99.90;;;;;;5070581;28;20567;-79
2022/08/31 08:58:06;;;;;;;6.50;1.77;;;17.10;99.90;;;;;;5070412;28;20040;-79
2022/08/31 09:00:33;;;;;;;3.67;1.80;;;17.20;99.90;;;;;;5069535;28;20040;-78
2022/08/31 09:03:20;;;;;;;2.55;1.38;;;17.20;99.90;;;;;;5070067;28;20036;-79
2022/08/31 09:06:08;;;;;;;5.97;2.00;;;17.30;99.90;;;;;;5070762;28;20366;-79
2022/08/31 09:08:45;;;;;;;14.40;4.05;;;17.30;99.90;;;;;;5074409;28;20170;-79
2022/08/31 09:11:49;;;;;;;6.72;2.33;;;17.40;99.90;;;;;;5068279;28;20043;-78
2022/08/31 09:14:33;;;;;;;2.78;1.52;;;17.40;99.90;;;;;;5067946;28;20023;-79
2022/08/31 09:17:23;;;;;;;3.15;1.60;;;17.40;99.90;;;;;;5068326;28;20377;-79
2022/08/31 09:20:00;;;;;;;2.70;1.25;;;17.50;99.90;;;;;;5061393;28;20032;-79
2022/08/31 09:22:31;;;;;;;14.98;2.00;;;17.50;99.90;;;;;;5067725;28;20163;-79
2022/08/31 09:25:02;;;;;;;6.18;1.75;;;17.60;99.90;;;;;;5070834;28;20032;-78
2022/08/31 09:27:39;;;;;;;7.10;1.92;;;17.60;99.90;;;;;;5066958;28;20029;-80
2022/08/31 09:30:06;;;;;;;4.10;1.45;;;17.70;99.90;;;;;;5068144;28;20393;-79
2022/08/31 09:32:35;;;;;;;4.95;1.70;;;17.70;99.90;;;;;;5067259;28;20029;-79
2022/08/31 09:35:22;;;;;;;6.90;1.55;;;17.60;99.90;;;;;;5070269;28;20024;-79
2022/08/31 09:38:01;;;;;;;9.80;2.28;;;17.70;99.90;;;;;;5067823;28;20508;-78
2022/08/31 09:40:37;;;;;;;9.52;1.10;;;17.70;99.90;;;;;;5070380;28;20476;-79
2022/08/31 09:43:11;;;;;;;4.35;1.98;;;17.70;99.90;;;;;;5069302;28;20017;-79
2022/08/31 09:45:49;;;;;;;4.22;1.30;;;17.80;99.90;;;;;;5063025;28;20039;-78
2022/08/31 09:48:47;;;;;;;5.32;1.83;;;17.90;99.90;;;;;;5069061;28;20075;-80
2022/08/31 09:51:34;;;;;;;2.72;1.30;;;18.00;99.90;;;;;;5070249;28;20047;-78
2022/08/31 09:56:57;;;;;;;4.10;1.77;;;18.10;99.90;;;;;;5068861;28;20082;-79
2022/08/31 09:59:42;;;;;;;6.22;1.70;;;18.10;99.90;;;;;;5069152;28;20416;-78
2022/08/31 10:02:36;;;;;;;11.27;1.50;;;18.10;99.90;;;;;;5069996;28;20034;-78
2022/08/31 10:05:05;;;;;;;2.97;1.27;;;18.10;99.90;;;;;;5068582;28;20090;-79
2022/08/31 10:07:47;;;;;;;5.10;1.33;;;18.10;99.90;;;;;;5068439;28;20024;-80
2022/08/31 10:10:41;;;;;;;3.67;1.83;;;18.10;99.90;;;;;;5069998;28;20472;-80
2022/08/31 10:13:35;;;;;;;9.13;1.48;;;18.10;99.90;;;;;;5060044;28;20021;-79
2022/08/31 10:16:24;;;;;;;5.63;2.13;;;18.20;99.90;;;;;;5068195;28;20032;-78
2022/08/31 10:19:11;;;;;;;240.55;37.83;;;18.20;99.90;;;;;;5067678;28;20044;-78
2022/08/31 10:21:43;;;;;;;27.75;5.72;;;18.20;99.90;;;;;;5061776;28;20077;-78
2022/08/31 10:24:44;;;;;;;5.63;2.20;;;18.30;99.90;;;;;;5068357;28;20025;-79
2022/08/31 10:27:31;;;;;;;5.30;1.58;;;18.30;99.90;;;;;;5068596;28;20082;-78
2022/08/31 10:30:27;;;;;;;3.30;1.70;;;18.40;99.90;;;;;;5069115;28;20039;-78
2022/08/31 10:32:52;;;;;;;;;;;18.40;99.90;;;;;;5066463;28;20024;-78
2022/08/31 10:35:35;;;;;;;7.32;2.30;;;18.50;99.90;;;;;;5069639;28;19908;-79
2022/08/31 10:38:25;;;;;;;4.35;1.95;;;18.50;99.90;;;;;;5060008;28;20043;-80
2022/08/31 10:41:29;;;;;;;8.07;1.60;;;18.60;99.90;;;;;;5065335;28;20108;-78
2022/08/31 10:44:32;;;;;;;14.75;1.85;;;18.70;99.90;;;;;;5066961;28;20111;-78
2022/08/31 10:47:01;;;;;;;6.00;1.70;;;18.80;99.90;;;;;;5064866;28;20121;-79
2022/08/31 10:49:27;;;;;;;4.35;1.55;;;18.90;99.90;;;;;;5065364;28;20071;-78
2022/08/31 10:52:09;;;;;;;3.63;1.85;;;18.90;99.90;;;;;;5069616;28;20465;-78
2022/08/31 10:55:05;;;;;;;2.90;1.55;;;19.00;99.90;;;;;;5068599;28;20485;-79
2022/08/31 10:57:50;;;;;;;6.65;2.08;;;19.10;99.90;;;;;;5063497;28;20021;-79
2022/08/31 11:01:00;;;;;;;9.35;1.83;;;19.20;99.90;;;;;;5069639;28;20049;-79
2022/08/31 11:04:14;;;;;;;7.18;1.75;;;19.20;99.90;;;;;;5065771;28;20119;-79
2022/08/31 11:06:50;;;;;;;8.48;1.50;;;19.30;99.90;;;;;;5070972;28;20119;-79
2022/08/31 11:09:32;;;;;;;6.35;1.80;;;19.20;99.90;;;;;;5068609;28;20039;-79
2022/08/31 11:12:07;;;;;;;3.28;1.70;;;19.20;99.90;;;;;;5071410;28;20520;-79
2022/08/31 11:15:08;;;;;;;3.95;1.50;;;19.20;99.90;;;;;;5075899;28;20032;-79
2022/08/31 11:17:54;;;;;;;2.47;1.42;;;19.20;99.90;;;;;;5061609;28;20078;-78
2022/08/31 11:20:56;;;;;;;5.40;1.25;;;19.20;99.90;;;;;;5077133;28;20494;-79
2022/08/31 11:23:41;;;;;;;2.50;1.38;;;19.20;99.90;;;;;;5070118;28;20050;-78
2022/08/31 11:26:34;;;;;;;8.80;2.23;;;19.20;99.90;;;;;;5063018;28;20033;-78
2022/08/31 11:29:11;;;;;;;3.67;1.67;;;19.20;99.90;;;;;;5071915;28;20063;-79
2022/08/31 11:31:39;;;;;;;3.17;1.30;;;19.20;99.90;;;;;;5065261;28;20487;-79
2022/08/31 11:34:21;;;;;;;1.50;1.00;;;19.20;99.90;;;;;;5071775;28;20032;-78
2022/08/31 11:36:56;;;;;;;2.65;1.13;;;19.20;99.90;;;;;;5069486;28;20016;-79
2022/08/31 11:39:34;;;;;;;8.23;1.25;;;19.20;99.90;;;;;;5083742;28;20114;-78
2022/08/31 11:42:01;;;;;;;2.05;1.40;;;19.30;99.90;;;;;;5072920;28;20036;-79
2022/08/31 11:44:40;;;;;;;2.55;1.00;;;19.30;99.90;;;;;;5071274;28;20036;-78
2022/08/31 11:47:06;;;;;;;2.47;1.10;;;19.30;99.90;;;;;;5064515;28;20547;-78
2022/08/31 11:49:42;;;;;;;4.72;1.38;;;19.30;99.90;;;;;;5069913;28;20051;-79
2022/08/31 11:52:23;;;;;;;8.73;1.27;;;19.40;99.90;;;;;;5074531;28;20036;-78
2022/08/31 11:54:49;;;;;;;3.88;1.00;;;19.40;99.90;;;;;;5075681;28;20032;-78
2022/08/31 11:57:23;;;;;;;8.70;1.65;;;19.40;99.90;;;;;;5072235;28;20461;-80
2022/08/31 11:59:50;;;;;;;6.03;1.63;;;19.50;99.90;;;;;;5069818;28;20329;-79
2022/08/31 12:02:19;;;;;;;2.10;1.40;;;19.50;99.90;;;;;;5072801;28;20028;-79
2022/08/31 12:04:49;;;;;;;9.35;2.08;;;19.50;99.90;;;;;;5071305;28;20116;-79
2022/08/31 12:07:27;;;;;;;3.13;1.25;;;19.50;99.90;;;;;;5071959;28;20031;-79
2022/08/31 12:10:13;;;;;;;4.22;1.23;;;19.50;99.90;;;;;;5069341;28;20024;-78
2022/08/31 12:12:58;;;;;;;2.97;1.20;;;19.50;99.90;;;;;;5069848;28;20036;-78
2022/08/31 12:15:40;;;;;;;5.10;1.38;;;19.50;99.90;;;;;;5071742;28;20024;-78
2022/08/31 12:18:17;;;;;;;1.70;1.25;;;19.50;99.90;;;;;;5069223;28;20066;-78
2022/08/31 12:23:57;;;;;;;3.83;1.27;;;19.50;99.90;;;;;;5070081;28;20036;-78
2022/08/31 12:26:43;;;;;;;18.13;4.57;;;19.50;99.90;;;;;;5081362;28;20112;-78
2022/08/31 12:29:33;;;;;;;14.15;3.13;;;19.50;99.90;;;;;;5068584;28;20039;-79
2022/08/31 12:32:21;;;;;;;8.18;1.90;;;19.60;99.90;;;;;;5064980;28;20189;-80
2022/08/31 12:35:13;;;;;;;4.22;1.10;;;19.60;99.90;;;;;;5068659;28;20025;-79
2022/08/31 12:37:42;;;;;;;3.38;1.30;;;19.70;99.90;;;;;;5043359;28;20079;-79
2022/08/31 12:40:20;;;;;;;5.57;1.40;;;19.70;99.90;;;;;;5068702;28;20248;-79
2022/08/31 12:43:16;;;;;;;7.15;1.40;;;19.80;99.90;;;;;;5068167;28;20477;-79
2022/08/31 12:46:03;;;;;;;2.72;0.90;;;19.80;99.90;;;;;;5069303;28;20039;-78
2022/08/31 12:48:46;;;;;;;2.78;1.25;;;19.80;99.90;;;;;;5059215;28;20057;-78
2022/08/31 12:51:41;;;;;;;2.28;1.00;;;19.80;99.90;;;;;;5067638;28;20454;-78
2022/08/31 12:54:18;;;;;;;6.82;1.30;;;19.80;99.90;;;;;;5071708;28;20028;-78
2022/08/31 12:56:53;;;;;;;58.50;9.05;;;19.70;99.90;;;;;;5063377;28;20143;-79
2022/08/31 12:59:36;;;;;;;14.48;3.50;;;19.70;99.90;;;;;;5063551;28;20072;-79
2022/08/31 13:02:03;;;;;;;5.90;1.73;;;19.70;99.90;;;;;;5069287;28;20032;-79
2022/08/31 13:04:28;;;;;;;8.02;3.17;;;19.80;99.90;;;;;;5062409;28;20060;-80
2022/08/31 13:06:54;;;;;;;5.38;1.90;;;19.80;99.90;;;;;;5069388;28;20446;-79
2022/08/31 13:09:36;;;;;;;1.15;0.90;;;19.80;99.90;;;;;;5069300;28;20060;-79
2022/08/31 13:12:02;;;;;;;1.55;1.00;;;19.80;99.90;;;;;;5070217;28;20051;-79
2022/08/31 13:14:40;;;;;;;4.05;1.00;;;19.80;99.90;;;;;;5066649;28;20074;-79
2022/08/31 13:17:16;;;;;;;3.22;1.30;;;19.90;99.90;;;;;;5071898;28;20037;-78
2022/08/31 13:19:47;;;;;;;5.72;1.30;;;20.00;99.90;;;;;;5079623;28;20097;-78
2022/08/31 13:22:15;;;;;;;1.80;1.02;;;20.00;99.90;;;;;;5068100;28;20376;-79
2022/08/31 13:24:43;;;;;;;6.18;1.00;;;20.10;99.90;;;;;;5069276;28;20484;-78
2022/08/31 13:27:25;;;;;;;1.70;0.85;;;20.10;99.90;;;;;;5070339;28;20546;-78
2022/08/31 13:29:52;;;;;;;2.28;0.98;;;20.10;99.90;;;;;;5069687;28;20095;-78